Time;durP1;ratioP1;P1;durP2;ratioP2;P2;SDS_P1;SDS_P2;PMS_P1;PMS_P2;Temp;Humidity;BMP_temperature;BMP_pressure;BME280_temperature;BME280_humidity;BME280_pressure;Samples;Min_cycle;Max_cycle;Signal;HPM_P1;HPM_P2
2020/01/13 00:01:01;;;;;;;15.7;9.549999;;;;;;;-2.3;83.01953;96126.93;;;;
2020/01/13 00:02:11;;;;;;;15.7;9.549999;;;;;;;-2.3;83.01953;96126.93;;;;
2020/01/13 00:03:13;;;;;;;15.7;9.549999;;;;;;;-2.3;83.01953;96126.93;;;;
2020/01/13 00:09:14;;;;;;;19.1;11.05;;;;;;;-2.28;83.39648;96119.28;;;;
2020/01/13 00:10:19;;;;;;;19.1;11.05;;;;;;;-2.28;83.39648;96119.28;;;;
2020/01/13 00:11:20;;;;;;;19.1;11.05;;;;;;;-2.28;83.39648;96119.28;;;;
2020/01/13 00:12:20;;;;;;;19.1;11.05;;;;;;;-2.28;83.39648;96119.28;;;;
2020/01/13 00:13:20;;;;;;;19.1;11.05;;;;;;;-2.28;83.39648;96119.28;;;;
2020/01/13 00:14:21;;;;;;;17.6;10.8;;;;;;;-2.32;83.01367;96117.49;;;;
2020/01/13 00:15:22;;;;;;;17.6;10.8;;;;;;;-2.32;83.01367;96117.49;;;;
2020/01/13 00:16:23;;;;;;;17.6;10.8;;;;;;;-2.32;83.01367;96117.49;;;;
2020/01/13 00:17:24;;;;;;;17.6;10.8;;;;;;;-2.32;83.01367;96117.49;;;;
2020/01/13 00:18:24;;;;;;;17.6;10.8;;;;;;;-2.32;83.01367;96117.49;;;;
2020/01/13 00:19:26;;;;;;;17.6;10.8;;;;;;;-2.32;83.01367;96117.49;;;;
2020/01/13 00:20:26;;;;;;;17.6;10.8;;;;;;;-2.32;83.01367;96117.49;;;;
2020/01/13 00:21:27;;;;;;;17.6;10.8;;;;;;;-2.32;83.01367;96117.49;;;;
2020/01/13 00:22:27;;;;;;;17.6;10.8;;;;;;;-2.32;83.01367;96117.49;;;;
2020/01/13 00:23:28;;;;;;;17.6;10.8;;;;;;;-2.32;83.01367;96117.49;;;;
2020/01/13 00:24:28;;;;;;;17.6;10.8;;;;;;;-2.32;83.01367;96117.49;;;;
2020/01/13 00:25:29;;;;;;;18.35;10.35;;;;;;;-2.11;82.6416;96106.7;;;;
2020/01/13 00:31:41;;;;;;;18.35;10.35;;;;;;;-2.11;82.6416;96106.7;;;;
2020/01/13 00:32:42;;;;;;;18.35;10.35;;;;;;;-2.11;82.6416;96106.7;;;;
2020/01/13 00:33:42;;;;;;;18.35;10.35;;;;;;;-2.11;82.6416;96106.7;;;;
2020/01/13 00:34:43;;;;;;;18.35;10.35;;;;;;;-2.11;82.6416;96106.7;;;;
2020/01/13 00:35:44;;;;;;;19.6;11.25;;;;;;;-1.8;82.05957;96113.5;;;;
2020/01/13 00:36:44;;;;;;;19.6;11.25;;;;;;;-1.8;82.05957;96113.5;;;;
2020/01/13 00:37:45;;;;;;;17.6;12;;;;;;;-1.64;82.4541;96116.5;;;;
2020/01/13 00:38:45;;;;;;;17.6;12;;;;;;;-1.64;82.4541;96116.5;;;;
2020/01/13 00:39:46;;;;;;;17.6;12;;;;;;;-1.64;82.4541;96116.5;;;;
2020/01/13 00:40:46;;;;;;;17.6;12;;;;;;;-1.64;82.4541;96116.5;;;;
2020/01/13 00:41:47;;;;;;;17.6;12;;;;;;;-1.64;82.4541;96116.5;;;;
2020/01/13 00:42:47;;;;;;;17.6;12;;;;;;;-1.64;82.4541;96116.5;;;;
2020/01/13 00:43:48;;;;;;;17.6;12;;;;;;;-1.64;82.4541;96116.5;;;;
2020/01/13 00:44:48;;;;;;;17.6;12;;;;;;;-1.64;82.4541;96116.5;;;;
2020/01/13 00:45:49;;;;;;;17.6;12;;;;;;;-1.64;82.4541;96116.5;;;;
2020/01/13 00:46:49;;;;;;;17.6;12;;;;;;;-1.64;82.4541;96116.5;;;;
2020/01/13 00:47:50;;;;;;;17.6;12;;;;;;;-1.64;82.4541;96116.5;;;;
2020/01/13 00:48:50;;;;;;;14.7;9.699999;;;;;;;-1.27;81.87988;96110.35;;;;
2020/01/13 00:49:51;;;;;;;14.7;9.699999;;;;;;;-1.27;81.87988;96110.35;;;;
2020/01/13 00:50:51;;;;;;;14.7;9.699999;;;;;;;-1.27;81.87988;96110.35;;;;
2020/01/13 00:51:51;;;;;;;16.8;11.15;;;;;;;-1.2;82.26758;96108.78;;;;
2020/01/13 00:52:52;;;;;;;16.8;11.15;;;;;;;-1.2;82.26758;96108.78;;;;
2020/01/13 00:53:52;;;;;;;16.8;11.15;;;;;;;-1.2;82.26758;96108.78;;;;
2020/01/13 00:54:53;;;;;;;16.8;11.15;;;;;;;-1.2;82.26758;96108.78;;;;
2020/01/13 00:55:53;;;;;;;16.8;11.15;;;;;;;-1.2;82.26758;96108.78;;;;
2020/01/13 00:56:54;;;;;;;16.8;11.15;;;;;;;-1.2;82.26758;96108.78;;;;
2020/01/13 00:57:55;;;;;;;16.8;11.15;;;;;;;-1.2;82.26758;96108.78;;;;
2020/01/13 00:58:55;;;;;;;16.8;11.15;;;;;;;-1.2;82.26758;96108.78;;;;
2020/01/13 00:59:56;;;;;;;16.8;11.15;;;;;;;-1.2;82.26758;96108.78;;;;
2020/01/13 01:00:56;;;;;;;16.8;11.15;;;;;;;-1.2;82.26758;96108.78;;;;
2020/01/13 01:01:57;;;;;;;11.05;8.150002;;;;;;;-1.23;81.87793;96096.26;;;;
2020/01/13 01:02:57;;;;;;;11.05;8.150002;;;;;;;-1.23;81.87793;96096.26;;;;
2020/01/13 01:04:03;;;;;;;11.05;8.150002;;;;;;;-1.23;81.87793;96096.26;;;;
2020/01/13 01:05:06;;;;;;;14.15;9.599999;;;;;;;-1.21;82.49609;96098.71;;;;
2020/01/13 01:06:09;;;;;;;14.15;9.599999;;;;;;;-1.21;82.49609;96098.71;;;;
2020/01/13 01:07:10;;;;;;;14.15;9.599999;;;;;;;-1.21;82.49609;96098.71;;;;
2020/01/13 01:08:12;;;;;;;14.15;9.599999;;;;;;;-1.21;82.49609;96098.71;;;;
2020/01/13 01:09:13;;;;;;;14.15;9.599999;;;;;;;-1.21;82.49609;96098.71;;;;
2020/01/13 01:10:32;;;;;;;14.15;9.599999;;;;;;;-1.21;82.49609;96098.71;;;;
2020/01/13 01:11:34;;;;;;;14.15;9.599999;;;;;;;-1.21;82.49609;96098.71;;;;
2020/01/13 01:12:34;;;;;;;14.15;9.599999;;;;;;;-1.21;82.49609;96098.71;;;;
2020/01/13 01:13:35;;;;;;;14.15;9.599999;;;;;;;-1.21;82.49609;96098.71;;;;
2020/01/13 01:14:39;;;;;;;14.15;9.599999;;;;;;;-1.21;82.49609;96098.71;;;;
2020/01/13 01:15:47;;;;;;;13;8.600001;;;;;;;-1.35;82.12598;96088.55;;;;
2020/01/13 01:17:10;;;;;;;13;8.600001;;;;;;;-1.35;82.12598;96088.55;;;;
2020/01/13 01:18:13;;;;;;;12.65;8.7;;;;;;;-1.35;82.79102;96092.52;;;;
2020/01/13 01:19:17;;;;;;;12.65;8.7;;;;;;;-1.35;82.79102;96092.52;;;;
2020/01/13 01:20:18;;;;;;;12.65;8.7;;;;;;;-1.35;82.79102;96092.52;;;;
2020/01/13 01:21:29;;;;;;;12.65;8.7;;;;;;;-1.35;82.79102;96092.52;;;;
2020/01/13 01:22:30;;;;;;;12.65;8.7;;;;;;;-1.35;82.79102;96092.52;;;;
2020/01/13 01:23:30;;;;;;;12.65;8.7;;;;;;;-1.35;82.79102;96092.52;;;;
2020/01/13 01:24:31;;;;;;;12.65;8.7;;;;;;;-1.35;82.79102;96092.52;;;;
2020/01/13 01:25:31;;;;;;;12.65;8.7;;;;;;;-1.35;82.79102;96092.52;;;;
2020/01/13 01:26:44;;;;;;;12.65;8.7;;;;;;;-1.35;82.79102;96092.52;;;;
2020/01/13 01:27:45;;;;;;;12.65;8.7;;;;;;;-1.35;82.79102;96092.52;;;;
2020/01/13 01:28:45;;;;;;;12.6;8.050001;;;;;;;-1.55;82.48047;96100.19;;;;
2020/01/13 01:29:46;;;;;;;12.6;8.050001;;;;;;;-1.55;82.48047;96100.19;;;;
2020/01/13 01:32:00;;;;;;;10.65;8.2;;;;;;;-1.55;83.05078;96103.31;;;;
2020/01/13 01:33:05;;;;;;;10.65;8.2;;;;;;;-1.55;83.05078;96103.31;;;;
2020/01/13 01:34:11;;;;;;;10.65;8.2;;;;;;;-1.55;83.05078;96103.31;;;;
2020/01/13 01:35:17;;;;;;;10.65;8.2;;;;;;;-1.55;83.05078;96103.31;;;;
2020/01/13 01:36:18;;;;;;;10.65;8.2;;;;;;;-1.55;83.05078;96103.31;;;;
2020/01/13 01:37:20;;;;;;;10.65;8.2;;;;;;;-1.55;83.05078;96103.31;;;;
2020/01/13 01:38:20;;;;;;;10.65;8.2;;;;;;;-1.55;83.05078;96103.31;;;;
2020/01/13 01:39:21;;;;;;;10.65;8.2;;;;;;;-1.55;83.05078;96103.31;;;;
2020/01/13 01:41:26;;;;;;;10.85;7.399999;;;;;;;-1.77;82.5957;96084.12;;;;
2020/01/13 01:42:27;;;;;;;10.85;7.399999;;;;;;;-1.77;82.5957;96084.12;;;;
2020/01/13 01:43:29;;;;;;;10.85;7.399999;;;;;;;-1.77;82.5957;96084.12;;;;
2020/01/13 01:44:29;;;;;;;10.85;7.399999;;;;;;;-1.77;82.5957;96084.12;;;;
2020/01/13 01:45:30;;;;;;;10.85;7.399999;;;;;;;-1.77;82.5957;96084.12;;;;
2020/01/13 01:46:30;;;;;;;10.85;7.399999;;;;;;;-1.77;82.5957;96084.12;;;;
2020/01/13 01:47:31;;;;;;;10.85;7.399999;;;;;;;-1.77;82.5957;96084.12;;;;
2020/01/13 01:48:50;;;;;;;10.85;7.399999;;;;;;;-1.77;82.5957;96084.12;;;;
2020/01/13 01:50:52;;;;;;;10.85;7.399999;;;;;;;-1.77;82.5957;96084.12;;;;
2020/01/13 01:51:53;;;;;;;10.6;7.35;;;;;;;-1.91;82.55566;96072.72;;;;
2020/01/13 01:52:53;;;;;;;10.6;7.35;;;;;;;-1.91;82.55566;96072.72;;;;
2020/01/13 01:53:54;;;;;;;10.6;7.35;;;;;;;-1.91;82.55566;96072.72;;;;
2020/01/13 01:54:54;;;;;;;10.6;7.35;;;;;;;-1.91;82.55566;96072.72;;;;
2020/01/13 01:55:55;;;;;;;10.6;7.35;;;;;;;-1.91;82.55566;96072.72;;;;
2020/01/13 01:56:55;;;;;;;10.6;7.35;;;;;;;-1.91;82.55566;96072.72;;;;
2020/01/13 01:57:56;;;;;;;10.6;7.35;;;;;;;-1.91;82.55566;96072.72;;;;
2020/01/13 01:58:56;;;;;;;10.6;7.35;;;;;;;-1.91;82.55566;96072.72;;;;
2020/01/13 01:59:57;;;;;;;10.6;7.35;;;;;;;-1.91;82.55566;96072.72;;;;
2020/01/13 02:00:58;;;;;;;10.6;7.35;;;;;;;-1.91;82.55566;96072.72;;;;
2020/01/13 02:03:16;;;;;;;10.6;7.35;;;;;;;-1.91;82.55566;96072.72;;;;
2020/01/13 02:04:21;;;;;;;13.45;7.449999;;;;;;;-2.09;82.34375;96065.14;;;;
2020/01/13 02:05:30;;;;;;;12.6;8.299999;;;;;;;-2.06;82.93066;96064.85;;;;
2020/01/13 02:06:31;;;;;;;12.6;8.299999;;;;;;;-2.06;82.93066;96064.85;;;;
2020/01/13 02:07:32;;;;;;;12.6;8.299999;;;;;;;-2.06;82.93066;96064.85;;;;
2020/01/13 02:08:32;;;;;;;12.6;8.299999;;;;;;;-2.06;82.93066;96064.85;;;;
2020/01/13 02:09:33;;;;;;;12.6;8.299999;;;;;;;-2.06;82.93066;96064.85;;;;
2020/01/13 02:11:43;;;;;;;12.6;8.299999;;;;;;;-2.06;82.93066;96064.85;;;;
2020/01/13 02:12:44;;;;;;;12.6;8.299999;;;;;;;-2.06;82.93066;96064.85;;;;
2020/01/13 02:13:46;;;;;;;12.6;8.299999;;;;;;;-2.06;82.93066;96064.85;;;;
2020/01/13 02:14:47;;;;;;;12.6;8.299999;;;;;;;-2.06;82.93066;96064.85;;;;
2020/01/13 02:15:48;;;;;;;9.749999;6.75;;;;;;;-2.17;82.52734;96052.13;;;;
2020/01/13 02:20:51;;;;;;;9.899999;7.299999;;;;;;;-2.14;83.08203;96045.23;;;;
2020/01/13 02:21:51;;;;;;;9.899999;7.299999;;;;;;;-2.14;83.08203;96045.23;;;;
2020/01/13 02:22:52;;;;;;;9.899999;7.299999;;;;;;;-2.14;83.08203;96045.23;;;;
2020/01/13 02:23:52;;;;;;;9.899999;7.299999;;;;;;;-2.14;83.08203;96045.23;;;;
2020/01/13 02:24:53;;;;;;;9.899999;7.299999;;;;;;;-2.14;83.08203;96045.23;;;;
2020/01/13 02:25:53;;;;;;;9.899999;7.299999;;;;;;;-2.14;83.08203;96045.23;;;;
2020/01/13 02:26:58;;;;;;;9.899999;7.299999;;;;;;;-2.14;83.08203;96045.23;;;;
2020/01/13 02:28:00;;;;;;;9.899999;7.299999;;;;;;;-2.14;83.08203;96045.23;;;;
2020/01/13 02:29:01;;;;;;;8.950002;6.25;;;;;;;-2.21;82.67383;96037.08;;;;
2020/01/13 02:30:12;;;;;;;8.950002;6.25;;;;;;;-2.21;82.67383;96037.08;;;;
2020/01/13 02:31:17;;;;;;;8.950002;6.25;;;;;;;-2.21;82.67383;96037.08;;;;
2020/01/13 02:37:28;;;;;;;8.299999;6.349999;;;;;;;-2.17;83.16992;96030.55;;;;
2020/01/13 02:38:33;;;;;;;8.299999;6.349999;;;;;;;-2.17;83.16992;96030.55;;;;
2020/01/13 02:39:41;;;;;;;8.299999;6.349999;;;;;;;-2.17;83.16992;96030.55;;;;
2020/01/13 02:40:48;;;;;;;8.299999;6.349999;;;;;;;-2.17;83.16992;96030.55;;;;
2020/01/13 02:41:49;;;;;;;8.299999;6.349999;;;;;;;-2.17;83.16992;96030.55;;;;
2020/01/13 02:43:00;;;;;;;8.05;6.099999;;;;;;;-2.26;82.60254;96029.17;;;;
2020/01/13 02:44:08;;;;;;;8.05;6.099999;;;;;;;-2.26;82.60254;96029.17;;;;
2020/01/13 02:45:15;;;;;;;8.05;6.099999;;;;;;;-2.26;82.60254;96029.17;;;;
2020/01/13 02:46:20;;;;;;;8.05;6.099999;;;;;;;-2.26;82.60254;96029.17;;;;
2020/01/13 02:47:22;;;;;;;8.05;6.099999;;;;;;;-2.26;82.60254;96029.17;;;;
2020/01/13 02:48:23;;;;;;;8.05;6.099999;;;;;;;-2.26;82.60254;96029.17;;;;
2020/01/13 02:49:25;;;;;;;8.05;6.099999;;;;;;;-2.26;82.60254;96029.17;;;;
2020/01/13 02:51:05;;;;;;;8.05;6.099999;;;;;;;-2.26;82.60254;96029.17;;;;
2020/01/13 02:52:06;;;;;;;8.05;6.099999;;;;;;;-2.26;82.60254;96029.17;;;;
2020/01/13 02:53:07;;;;;;;8.700001;5.750001;;;;;;;-2.33;82.39063;96029.44;;;;
2020/01/13 02:54:08;;;;;;;8.700001;5.750001;;;;;;;-2.33;82.39063;96029.44;;;;
2020/01/13 02:55:08;;;;;;;8.700001;5.750001;;;;;;;-2.33;82.39063;96029.44;;;;
2020/01/13 02:56:44;;;;;;;8.700001;5.750001;;;;;;;-2.33;82.39063;96029.44;;;;
2020/01/13 02:57:44;;;;;;;8.700001;5.750001;;;;;;;-2.33;82.39063;96029.44;;;;
2020/01/13 02:58:45;;;;;;;8.700001;5.750001;;;;;;;-2.33;82.39063;96029.44;;;;
2020/01/13 02:59:51;;;;;;;8.700001;5.750001;;;;;;;-2.33;82.39063;96029.44;;;;
2020/01/13 03:01:09;;;;;;;8.700001;5.750001;;;;;;;-2.33;82.39063;96029.44;;;;
2020/01/13 03:02:17;;;;;;;8.700001;5.750001;;;;;;;-2.33;82.39063;96029.44;;;;
2020/01/13 03:03:23;;;;;;;8.200001;5.6;;;;;;;-2.44;82.12207;96023.38;;;;
2020/01/13 03:09:38;;;;;;;8.200001;5.6;;;;;;;-2.44;82.12207;96023.38;;;;
2020/01/13 03:10:38;;;;;;;8.200001;5.6;;;;;;;-2.44;82.12207;96023.38;;;;
2020/01/13 03:11:39;;;;;;;8.200001;5.6;;;;;;;-2.44;82.12207;96023.38;;;;
2020/01/13 03:12:39;;;;;;;8.200001;5.6;;;;;;;-2.44;82.12207;96023.38;;;;
2020/01/13 03:13:40;;;;;;;8.200001;5.6;;;;;;;-2.44;82.12207;96023.38;;;;
2020/01/13 03:14:40;;;;;;;8.999999;5.65;;;;;;;-2.49;81.9375;96020.33;;;;
2020/01/13 03:15:41;;;;;;;8.999999;5.65;;;;;;;-2.49;81.9375;96020.33;;;;
2020/01/13 03:16:42;;;;;;;8.999999;5.65;;;;;;;-2.49;81.9375;96020.33;;;;
2020/01/13 03:17:42;;;;;;;8.999999;5.65;;;;;;;-2.49;81.9375;96020.33;;;;
2020/01/13 03:18:45;;;;;;;8.999999;5.65;;;;;;;-2.49;81.9375;96020.33;;;;
2020/01/13 03:19:50;;;;;;;8.999999;5.65;;;;;;;-2.49;81.9375;96020.33;;;;
2020/01/13 03:20:54;;;;;;;8.999999;5.65;;;;;;;-2.49;81.9375;96020.33;;;;
2020/01/13 03:21:55;;;;;;;8.999999;5.65;;;;;;;-2.49;81.9375;96020.33;;;;
2020/01/13 03:22:55;;;;;;;8.999999;5.65;;;;;;;-2.49;81.9375;96020.33;;;;
2020/01/13 03:23:56;;;;;;;8.999999;5.65;;;;;;;-2.49;81.9375;96020.33;;;;
2020/01/13 03:24:56;;;;;;;9.5;5.600001;;;;;;;-2.58;81.89844;96014.54;;;;
2020/01/13 03:25:57;;;;;;;9.5;5.600001;;;;;;;-2.58;81.89844;96014.54;;;;
2020/01/13 03:26:57;;;;;;;9.5;5.600001;;;;;;;-2.58;81.89844;96014.54;;;;
2020/01/13 03:28:02;;;;;;;7.599999;5.45;;;;;;;-2.52;82.48926;96000.79;;;;
2020/01/13 03:29:08;;;;;;;7.599999;5.45;;;;;;;-2.52;82.48926;96000.79;;;;
2020/01/13 03:30:09;;;;;;;7.599999;5.45;;;;;;;-2.52;82.48926;96000.79;;;;
2020/01/13 03:31:14;;;;;;;7.599999;5.45;;;;;;;-2.52;82.48926;96000.79;;;;
2020/01/13 03:32:20;;;;;;;7.599999;5.45;;;;;;;-2.52;82.48926;96000.79;;;;
2020/01/13 03:33:21;;;;;;;7.599999;5.45;;;;;;;-2.52;82.48926;96000.79;;;;
2020/01/13 03:34:23;;;;;;;7.599999;5.45;;;;;;;-2.52;82.48926;96000.79;;;;
2020/01/13 03:35:24;;;;;;;7.599999;5.45;;;;;;;-2.52;82.48926;96000.79;;;;
2020/01/13 03:36:24;;;;;;;7.599999;5.45;;;;;;;-2.52;82.48926;96000.79;;;;
2020/01/13 03:37:26;;;;;;;7.599999;5.45;;;;;;;-2.52;82.48926;96000.79;;;;
2020/01/13 03:38:48;;;;;;;7.75;5.2;;;;;;;-2.3;81.93262;95993.39;;;;
2020/01/13 03:39:57;;;;;;;7.75;5.2;;;;;;;-2.3;81.93262;95993.39;;;;
2020/01/13 03:41:08;;;;;;;7.75;5.2;;;;;;;-2.3;81.93262;95993.39;;;;
2020/01/13 03:42:12;;;;;;;7.75;5.2;;;;;;;-2.3;81.93262;95993.39;;;;
2020/01/13 03:43:13;;;;;;;7.75;5.2;;;;;;;-2.3;81.93262;95993.39;;;;
2020/01/13 03:44:50;;;;;;;7.75;5.2;;;;;;;-2.3;81.93262;95993.39;;;;
2020/01/13 03:45:57;;;;;;;7.75;5.2;;;;;;;-2.3;81.93262;95993.39;;;;
2020/01/13 03:47:26;;;;;;;7.75;5.2;;;;;;;-2.3;81.93262;95993.39;;;;
2020/01/13 03:48:50;;;;;;;8.350001;4.95;;;;;;;-2.29;81.53027;95984.08;;;;
2020/01/13 03:50:02;;;;;;;8.350001;4.95;;;;;;;-2.29;81.53027;95984.08;;;;
2020/01/13 03:52:08;;;;;;;8.350001;4.95;;;;;;;-2.29;81.53027;95984.08;;;;
2020/01/13 03:53:38;;;;;;;8.350001;4.95;;;;;;;-2.29;81.53027;95984.08;;;;
2020/01/13 03:56:03;;;;;;;8.350001;4.95;;;;;;;-2.29;81.53027;95984.08;;;;
2020/01/13 03:57:33;;;;;;;8.350001;4.95;;;;;;;-2.29;81.53027;95984.08;;;;
2020/01/13 03:59:03;;;;;;;8.3;5.299999;;;;;;;-2.29;81.6748;95990.69;;;;
2020/01/13 04:00:18;;;;;;;8.3;5.299999;;;;;;;-2.29;81.6748;95990.69;;;;
2020/01/13 04:01:18;;;;;;;8.3;5.299999;;;;;;;-2.29;81.6748;95990.69;;;;
2020/01/13 04:02:19;;;;;;;8.3;5.299999;;;;;;;-2.29;81.6748;95990.69;;;;
2020/01/13 04:03:21;;;;;;;8.3;5.299999;;;;;;;-2.29;81.6748;95990.69;;;;
2020/01/13 04:04:23;;;;;;;8.3;5.299999;;;;;;;-2.29;81.6748;95990.69;;;;
2020/01/13 04:05:24;;;;;;;8.3;5.299999;;;;;;;-2.29;81.6748;95990.69;;;;
2020/01/13 04:06:26;;;;;;;8.3;5.299999;;;;;;;-2.29;81.6748;95990.69;;;;
2020/01/13 04:07:26;;;;;;;8.3;5.299999;;;;;;;-2.29;81.6748;95990.69;;;;
2020/01/13 04:08:27;;;;;;;8.3;5.299999;;;;;;;-2.29;81.6748;95990.69;;;;
2020/01/13 04:09:27;;;;;;;8.3;5.299999;;;;;;;-2.29;81.6748;95990.69;;;;
2020/01/13 04:10:28;;;;;;;6.9;5.05;;;;;;;-1.94;81.4209;95984.77;;;;
2020/01/13 04:11:28;;;;;;;6.9;5.05;;;;;;;-1.94;81.4209;95984.77;;;;
2020/01/13 04:12:29;;;;;;;6.9;5.05;;;;;;;-1.94;81.4209;95984.77;;;;
2020/01/13 04:13:29;;;;;;;6.9;5.05;;;;;;;-1.94;81.4209;95984.77;;;;
2020/01/13 04:14:29;;;;;;;6.9;5.05;;;;;;;-1.94;81.4209;95984.77;;;;
2020/01/13 04:15:30;;;;;;;6.9;5.05;;;;;;;-1.94;81.4209;95984.77;;;;
2020/01/13 04:16:30;;;;;;;6.9;5.05;;;;;;;-1.94;81.4209;95984.77;;;;
2020/01/13 04:17:31;;;;;;;6.9;5.05;;;;;;;-1.94;81.4209;95984.77;;;;
2020/01/13 04:18:32;;;;;;;6.9;5.05;;;;;;;-1.94;81.4209;95984.77;;;;
2020/01/13 04:19:32;;;;;;;6.9;5.05;;;;;;;-1.94;81.4209;95984.77;;;;
2020/01/13 04:20:33;;;;;;;6.199999;4.65;;;;;;;-1.63;80.83691;95976.53;;;;
2020/01/13 04:21:33;;;;;;;6.199999;4.65;;;;;;;-1.63;80.83691;95976.53;;;;
2020/01/13 04:22:34;;;;;;;6.199999;4.65;;;;;;;-1.63;80.83691;95976.53;;;;
2020/01/13 04:23:34;;;;;;;6.199999;4.65;;;;;;;-1.63;80.83691;95976.53;;;;
2020/01/13 04:24:35;;;;;;;6.199999;4.65;;;;;;;-1.63;80.83691;95976.53;;;;
2020/01/13 04:25:35;;;;;;;6.199999;4.65;;;;;;;-1.63;80.83691;95976.53;;;;
2020/01/13 04:26:35;;;;;;;6.199999;4.65;;;;;;;-1.63;80.83691;95976.53;;;;
2020/01/13 04:27:36;;;;;;;6.199999;4.65;;;;;;;-1.63;80.83691;95976.53;;;;
2020/01/13 04:28:36;;;;;;;6.199999;4.65;;;;;;;-1.63;80.83691;95976.53;;;;
2020/01/13 04:29:37;;;;;;;6.199999;4.65;;;;;;;-1.63;80.83691;95976.53;;;;
2020/01/13 04:30:37;;;;;;;6.199999;4.65;;;;;;;-1.63;80.83691;95976.53;;;;
2020/01/13 04:31:40;;;;;;;5.45;4;;;;;;;-1.47;80.40039;95959.53;;;;
2020/01/13 04:32:41;;;;;;;5.45;4;;;;;;;-1.47;80.40039;95959.53;;;;
2020/01/13 04:33:42;;;;;;;5.45;4;;;;;;;-1.47;80.40039;95959.53;;;;
2020/01/13 04:34:42;;;;;;;5.45;4;;;;;;;-1.47;80.40039;95959.53;;;;
2020/01/13 04:35:43;;;;;;;5.45;4;;;;;;;-1.47;80.40039;95959.53;;;;
2020/01/13 04:36:43;;;;;;;5.45;4;;;;;;;-1.47;80.40039;95959.53;;;;
2020/01/13 04:37:44;;;;;;;5.45;4;;;;;;;-1.47;80.40039;95959.53;;;;
2020/01/13 04:38:44;;;;;;;5.45;4;;;;;;;-1.47;80.40039;95959.53;;;;
2020/01/13 04:39:45;;;;;;;5.45;4;;;;;;;-1.47;80.40039;95959.53;;;;
2020/01/13 04:40:45;;;;;;;5.45;4;;;;;;;-1.47;80.40039;95959.53;;;;
2020/01/13 04:41:48;;;;;;;5.649999;4.15;;;;;;;-1.68;80.42285;95956.23;;;;
2020/01/13 04:42:52;;;;;;;5.649999;4.15;;;;;;;-1.68;80.42285;95956.23;;;;
2020/01/13 04:43:53;;;;;;;5.649999;4.15;;;;;;;-1.68;80.42285;95956.23;;;;
2020/01/13 04:44:55;;;;;;;5.649999;4.15;;;;;;;-1.68;80.42285;95956.23;;;;
2020/01/13 04:45:55;;;;;;;5.649999;4.15;;;;;;;-1.68;80.42285;95956.23;;;;
2020/01/13 04:46:56;;;;;;;5.649999;4.15;;;;;;;-1.68;80.42285;95956.23;;;;
2020/01/13 04:47:56;;;;;;;5.649999;4.15;;;;;;;-1.68;80.42285;95956.23;;;;
2020/01/13 04:48:57;;;;;;;5.649999;4.15;;;;;;;-1.68;80.42285;95956.23;;;;
2020/01/13 04:49:57;;;;;;;5.649999;4.15;;;;;;;-1.68;80.42285;95956.23;;;;
2020/01/13 04:50:58;;;;;;;5.649999;4.15;;;;;;;-1.68;80.42285;95956.23;;;;
2020/01/13 04:51:58;;;;;;;5.5;4.15;;;;;;;-1.88;80.55176;95948.91;;;;
2020/01/13 04:52:59;;;;;;;5.5;4.15;;;;;;;-1.88;80.55176;95948.91;;;;
2020/01/13 04:54:00;;;;;;;5.5;4.15;;;;;;;-1.88;80.55176;95948.91;;;;
2020/01/13 04:55:01;;;;;;;5.5;4.15;;;;;;;-1.88;80.55176;95948.91;;;;
2020/01/13 04:56:02;;;;;;;5.5;4.15;;;;;;;-1.88;80.55176;95948.91;;;;
2020/01/13 04:57:04;;;;;;;5.5;4.15;;;;;;;-1.88;80.55176;95948.91;;;;
2020/01/13 04:58:23;;;;;;;5.5;4.15;;;;;;;-1.88;80.55176;95948.91;;;;
2020/01/13 04:59:24;;;;;;;5.5;4.15;;;;;;;-1.88;80.55176;95948.91;;;;
2020/01/13 05:00:32;;;;;;;5.5;4.15;;;;;;;-1.88;80.55176;95948.91;;;;
2020/01/13 05:01:38;;;;;;;5.5;4.15;;;;;;;-1.88;80.55176;95948.91;;;;
2020/01/13 05:02:39;;;;;;;6.15;4.349999;;;;;;;-2.12;80.74414;95947.64;;;;
2020/01/13 05:03:39;;;;;;;6.15;4.349999;;;;;;;-2.12;80.74414;95947.64;;;;
2020/01/13 05:04:40;;;;;;;6.15;4.349999;;;;;;;-2.12;80.74414;95947.64;;;;
2020/01/13 05:05:40;;;;;;;6.15;4.349999;;;;;;;-2.12;80.74414;95947.64;;;;
2020/01/13 05:06:41;;;;;;;6.15;4.349999;;;;;;;-2.12;80.74414;95947.64;;;;
2020/01/13 05:07:41;;;;;;;6.15;4.349999;;;;;;;-2.12;80.74414;95947.64;;;;
2020/01/13 05:08:42;;;;;;;6.15;4.349999;;;;;;;-2.12;80.74414;95947.64;;;;
2020/01/13 05:09:43;;;;;;;6.15;4.349999;;;;;;;-2.12;80.74414;95947.64;;;;
2020/01/13 05:10:43;;;;;;;6.15;4.349999;;;;;;;-2.12;80.74414;95947.64;;;;
2020/01/13 05:11:44;;;;;;;6.15;4.349999;;;;;;;-2.12;80.74414;95947.64;;;;
2020/01/13 05:12:49;;;;;;;6.15;4.349999;;;;;;;-2.12;80.74414;95947.64;;;;
2020/01/13 05:13:50;;;;;;;6.95;4.400001;;;;;;;-2.24;80.85547;95940.01;;;;
2020/01/13 05:14:50;;;;;;;6.95;4.400001;;;;;;;-2.24;80.85547;95940.01;;;;
2020/01/13 05:15:51;;;;;;;6.95;4.400001;;;;;;;-2.24;80.85547;95940.01;;;;
2020/01/13 05:16:52;;;;;;;6.95;4.400001;;;;;;;-2.24;80.85547;95940.01;;;;
2020/01/13 05:17:52;;;;;;;6.95;4.400001;;;;;;;-2.24;80.85547;95940.01;;;;
2020/01/13 05:18:53;;;;;;;6.95;4.400001;;;;;;;-2.24;80.85547;95940.01;;;;
2020/01/13 05:19:53;;;;;;;6.95;4.400001;;;;;;;-2.24;80.85547;95940.01;;;;
2020/01/13 05:20:53;;;;;;;6.95;4.400001;;;;;;;-2.24;80.85547;95940.01;;;;
2020/01/13 05:21:54;;;;;;;6.95;4.400001;;;;;;;-2.24;80.85547;95940.01;;;;
2020/01/13 05:22:54;;;;;;;6.95;4.400001;;;;;;;-2.24;80.85547;95940.01;;;;
2020/01/13 05:23:57;;;;;;;8.000001;4.5;;;;;;;-2.41;80.80176;95931.5;;;;
2020/01/13 05:24:58;;;;;;;8.000001;4.5;;;;;;;-2.41;80.80176;95931.5;;;;
2020/01/13 05:25:58;;;;;;;8.000001;4.5;;;;;;;-2.41;80.80176;95931.5;;;;
2020/01/13 05:26:59;;;;;;;8.000001;4.5;;;;;;;-2.41;80.80176;95931.5;;;;
2020/01/13 05:27:59;;;;;;;8.000001;4.5;;;;;;;-2.41;80.80176;95931.5;;;;
2020/01/13 05:29:00;;;;;;;8.000001;4.5;;;;;;;-2.41;80.80176;95931.5;;;;
2020/01/13 05:30:00;;;;;;;8.000001;4.5;;;;;;;-2.41;80.80176;95931.5;;;;
2020/01/13 05:31:00;;;;;;;8.000001;4.5;;;;;;;-2.41;80.80176;95931.5;;;;
2020/01/13 05:32:01;;;;;;;8.000001;4.5;;;;;;;-2.41;80.80176;95931.5;;;;
2020/01/13 05:33:01;;;;;;;8.000001;4.5;;;;;;;-2.41;80.80176;95931.5;;;;
2020/01/13 05:34:02;;;;;;;8.000001;4.5;;;;;;;-2.41;80.80176;95931.5;;;;
2020/01/13 05:35:02;;;;;;;6.95;4.050001;;;;;;;-2.45;80.95898;95919.53;;;;
2020/01/13 05:36:03;;;;;;;6.95;4.050001;;;;;;;-2.45;80.95898;95919.53;;;;
2020/01/13 05:37:03;;;;;;;6.95;4.050001;;;;;;;-2.45;80.95898;95919.53;;;;
2020/01/13 05:38:04;;;;;;;6.95;4.050001;;;;;;;-2.45;80.95898;95919.53;;;;
2020/01/13 05:39:04;;;;;;;6.95;4.050001;;;;;;;-2.45;80.95898;95919.53;;;;
2020/01/13 05:40:05;;;;;;;6.95;4.050001;;;;;;;-2.45;80.95898;95919.53;;;;
2020/01/13 05:41:05;;;;;;;6.95;4.050001;;;;;;;-2.45;80.95898;95919.53;;;;
2020/01/13 05:42:06;;;;;;;6.95;4.050001;;;;;;;-2.45;80.95898;95919.53;;;;
2020/01/13 05:43:06;;;;;;;6.95;4.050001;;;;;;;-2.45;80.95898;95919.53;;;;
2020/01/13 05:44:06;;;;;;;6.95;4.050001;;;;;;;-2.45;80.95898;95919.53;;;;
2020/01/13 05:45:07;;;;;;;5.750001;4.35;;;;;;;-2.5;80.82715;95921.26;;;;
2020/01/13 05:46:07;;;;;;;5.750001;4.35;;;;;;;-2.5;80.82715;95921.26;;;;
2020/01/13 05:47:08;;;;;;;5.750001;4.35;;;;;;;-2.5;80.82715;95921.26;;;;
2020/01/13 05:48:08;;;;;;;5.750001;4.35;;;;;;;-2.5;80.82715;95921.26;;;;
2020/01/13 05:49:09;;;;;;;5.750001;4.35;;;;;;;-2.5;80.82715;95921.26;;;;
2020/01/13 05:50:09;;;;;;;5.750001;4.35;;;;;;;-2.5;80.82715;95921.26;;;;
2020/01/13 05:51:10;;;;;;;5.750001;4.35;;;;;;;-2.5;80.82715;95921.26;;;;
2020/01/13 05:52:10;;;;;;;5.750001;4.35;;;;;;;-2.5;80.82715;95921.26;;;;
2020/01/13 05:53:10;;;;;;;5.750001;4.35;;;;;;;-2.5;80.82715;95921.26;;;;
2020/01/13 05:54:11;;;;;;;5.750001;4.35;;;;;;;-2.5;80.82715;95921.26;;;;
2020/01/13 05:55:11;;;;;;;5.750001;4.35;;;;;;;-2.5;80.82715;95921.26;;;;
2020/01/13 05:56:12;;;;;;;10.05;5.2;;;;;;;-2.49;80.72559;95904.44;;;;
2020/01/13 05:57:12;;;;;;;10.05;5.2;;;;;;;-2.49;80.72559;95904.44;;;;
2020/01/13 05:58:13;;;;;;;10.05;5.2;;;;;;;-2.49;80.72559;95904.44;;;;
2020/01/13 05:59:13;;;;;;;10.05;5.2;;;;;;;-2.49;80.72559;95904.44;;;;
2020/01/13 06:00:14;;;;;;;10.05;5.2;;;;;;;-2.49;80.72559;95904.44;;;;
2020/01/13 06:01:14;;;;;;;10.05;5.2;;;;;;;-2.49;80.72559;95904.44;;;;
2020/01/13 06:02:15;;;;;;;10.05;5.2;;;;;;;-2.49;80.72559;95904.44;;;;
2020/01/13 06:03:16;;;;;;;10.05;5.2;;;;;;;-2.49;80.72559;95904.44;;;;
2020/01/13 06:04:16;;;;;;;10.05;5.2;;;;;;;-2.49;80.72559;95904.44;;;;
2020/01/13 06:05:17;;;;;;;10.05;5.2;;;;;;;-2.49;80.72559;95904.44;;;;
2020/01/13 06:06:17;;;;;;;5.15;3.95;;;;;;;-2.61;80.54492;95902.09;;;;
2020/01/13 06:08:24;;;;;;;5.15;3.95;;;;;;;-2.61;80.54492;95902.09;;;;
2020/01/13 06:09:25;;;;;;;5.15;3.95;;;;;;;-2.61;80.54492;95902.09;;;;
2020/01/13 06:10:26;;;;;;;5.15;3.95;;;;;;;-2.61;80.54492;95902.09;;;;
2020/01/13 06:11:26;;;;;;;5.15;3.95;;;;;;;-2.61;80.54492;95902.09;;;;
2020/01/13 06:12:27;;;;;;;5.15;3.95;;;;;;;-2.61;80.54492;95902.09;;;;
2020/01/13 06:13:27;;;;;;;5.15;3.95;;;;;;;-2.61;80.54492;95902.09;;;;
2020/01/13 06:14:27;;;;;;;5.15;3.95;;;;;;;-2.61;80.54492;95902.09;;;;
2020/01/13 06:15:28;;;;;;;5.15;3.95;;;;;;;-2.61;80.54492;95902.09;;;;
2020/01/13 06:16:28;;;;;;;5.15;3.95;;;;;;;-2.61;80.54492;95902.09;;;;
2020/01/13 06:17:29;;;;;;;5.700001;3.65;;;;;;;-2.68;80.59668;95898.26;;;;